Time;durP1;ratioP1;P1;durP2;ratioP2;P2;SDS_P1;SDS_P2;PMS_P1;PMS_P2;Temp;Humidity;BMP_temperature;BMP_pressure;BME280_temperature;BME280_humidity;BME280_pressure;Samples;Min_cycle;Max_cycle;Signal;HPM_P1;HPM_P2
2022/04/01 00:00:38;;;;;;;;;2.50;2.50;;;;;;;;5141334;27;45308;-82
2022/04/01 00:03:03;;;;;;;;;2.00;2.00;;;;;;;;5137525;27;45388;-81
2022/04/01 00:05:29;;;;;;;;;2.00;0.00;;;;;;;;5134217;27;45288;-81
2022/04/01 00:07:54;;;;;;;;;1.00;1.00;;;;;;;;5131946;27;45281;-79
2022/04/01 00:10:19;;;;;;;;;1.00;1.00;;;;;;;;5134692;27;45416;-80
2022/04/01 00:12:46;;;;;;;;;1.00;1.00;;;;;;;;5135588;27;48313;-80
2022/04/01 00:15:12;;;;;;;;;1.00;1.00;;;;;;;;5137918;27;45317;-83
2022/04/01 00:17:38;;;;;;;;;1.00;1.00;;;;;;;;5135308;27;45587;-80
2022/04/01 00:20:03;;;;;;;;;2.00;2.00;;;;;;;;5135020;27;45319;-79
2022/04/01 00:22:29;;;;;;;;;1.67;1.67;;;;;;;;5131800;27;46988;-81
2022/04/01 00:24:54;;;;;;;;;1.33;1.00;;;;;;;;5138289;27;44722;-81
2022/04/01 00:27:19;;;;;;;;;1.00;1.00;;;;;;;;5134201;27;45554;-82
2022/04/01 00:29:48;;;;;;;;;0.00;0.00;;;;;;;;5134779;27;45394;-81
2022/04/01 00:32:13;;;;;;;;;2.00;2.00;;;;;;;;5137556;27;46145;-82
2022/04/01 00:34:39;;;;;;;;;1.00;1.00;;;;;;;;5133530;27;45192;-82
2022/04/01 00:37:04;;;;;;;;;2.00;2.00;;;;;;;;5137087;27;45359;-82
2022/04/01 00:39:31;;;;;;;;;1.25;1.00;;;;;;;;5137266;27;47077;-83
2022/04/01 00:41:57;;;;;;;;;1.25;1.00;;;;;;;;5133991;27;46228;-82
2022/04/01 00:44:23;;;;;;;;;0.25;0.25;;;;;;;;5138146;27;45772;-82
2022/04/01 00:46:50;;;;;;;;;1.25;0.75;;;;;;;;5138360;27;45234;-81
2022/04/01 00:49:16;;;;;;;;;1.75;1.25;;;;;;;;5136924;27;46007;-82
2022/04/01 00:51:42;;;;;;;;;1.50;1.50;;;;;;;;5137815;27;46608;-83
2022/04/01 00:54:08;;;;;;;;;2.00;2.00;;;;;;;;5139456;27;45478;-81
2022/04/01 00:56:34;;;;;;;;;1.75;1.75;;;;;;;;5137131;27;45501;-81
2022/04/01 00:58:59;;;;;;;;;2.00;2.00;;;;;;;;5136149;27;45308;-79
2022/04/01 01:01:25;;;;;;;;;3.75;3.75;;;;;;;;5137944;27;46018;-83
2022/04/01 01:03:50;;;;;;;;;1.00;1.00;;;;;;;;5134174;27;45452;-81
2022/04/01 01:06:19;;;;;;;;;3.00;1.00;;;;;;;;5128129;27;45529;-82
2022/04/01 01:08:45;;;;;;;;;0.67;0.67;;;;;;;;5131654;27;46015;-82
2022/04/01 01:11:10;;;;;;;;;1.67;1.67;;;;;;;;5134648;27;45229;-82
2022/04/01 01:13:36;;;;;;;;;1.25;1.25;;;;;;;;5131274;27;45355;-82
2022/04/01 01:16:01;;;;;;;;;1.00;1.00;;;;;;;;5135089;27;45427;-83
2022/04/01 01:18:26;;;;;;;;;1.67;1.67;;;;;;;;5130433;27;45164;-83
2022/04/01 01:20:51;;;;;;;;;1.50;1.00;;;;;;;;5131287;27;47088;-83
2022/04/01 01:23:17;;;;;;;;;1.25;1.25;;;;;;;;5132201;27;45303;-82
2022/04/01 01:25:42;;;;;;;;;0.67;0.33;;;;;;;;5132164;27;45246;-80
2022/04/01 01:28:07;;;;;;;;;3.00;2.00;;;;;;;;5132348;27;46840;-82
2022/04/01 01:30:33;;;;;;;;;1.00;1.00;;;;;;;;5132069;27;45220;-82
2022/04/01 01:32:58;;;;;;;;;1.50;0.75;;;;;;;;5129680;27;45331;-83
2022/04/01 01:35:23;;;;;;;;;2.50;1.00;;;;;;;;5136933;27;44665;-82
2022/04/01 01:37:48;;;;;;;;;1.25;1.25;;;;;;;;5134210;27;45270;-82
2022/04/01 01:40:14;;;;;;;;;0.67;0.67;;;;;;;;5132503;27;46163;-80
2022/04/01 01:42:39;;;;;;;;;1.00;1.00;;;;;;;;5132542;27;45351;-84
2022/04/01 01:45:05;;;;;;;;;3.75;1.75;;;;;;;;5133436;27;44632;-83
2022/04/01 01:47:30;;;;;;;;;3.50;3.50;;;;;;;;5131130;27;45468;-80
2022/04/01 01:55:23;;;;;;;;;1.00;1.00;;;;;;;;5138023;27;45262;-80
2022/04/01 01:57:48;;;;;;;;;1.00;1.00;;;;;;;;5133871;27;45348;-82
2022/04/01 02:00:18;;;;;;;;;1.00;1.00;;;;;;;;5134088;27;45296;-81
2022/04/01 02:02:43;;;;;;;;;2.00;1.00;;;;;;;;5129506;27;45344;-82
2022/04/01 02:05:08;;;;;;;;;2.67;1.33;;;;;;;;5130385;27;45344;-82
2022/04/01 02:07:34;;;;;;;;;2.00;2.00;;;;;;;;5137069;27;44715;-81
2022/04/01 02:09:59;;;;;;;;;1.75;1.00;;;;;;;;5132368;27;45303;-81
2022/04/01 02:12:25;;;;;;;;;1.00;1.00;;;;;;;;5134567;27;45349;-82
2022/04/01 02:14:50;;;;;;;;;4.00;1.00;;;;;;;;5133719;27;45314;-82
2022/04/01 02:17:16;;;;;;;;;1.00;1.00;;;;;;;;5131269;27;46043;-82
2022/04/01 02:19:41;;;;;;;;;1.00;1.00;;;;;;;;5130818;27;46311;-82
2022/04/01 02:22:07;;;;;;;;;1.00;1.00;;;;;;;;5130324;27;45277;-81
2022/04/01 02:24:32;;;;;;;;;2.50;2.50;;;;;;;;5129836;27;45400;-83
2022/04/01 02:26:57;;;;;;;;;2.00;2.00;;;;;;;;5130494;27;45564;-83
2022/04/01 02:29:23;;;;;;;;;1.25;1.00;;;;;;;;5130004;27;48545;-82
2022/04/01 02:31:52;;;;;;;;;3.00;2.25;;;;;;;;5128981;27;45343;-85
2022/04/01 02:34:17;;;;;;;;;0.50;0.50;;;;;;;;5129716;27;45486;-81
2022/04/01 02:36:43;;;;;;;;;1.25;1.25;;;;;;;;5128809;27;45988;-83
2022/04/01 02:39:08;;;;;;;;;1.50;1.25;;;;;;;;5127996;27;47496;-82
2022/04/01 02:41:34;;;;;;;;;2.00;2.00;;;;;;;;5131571;27;45299;-80
2022/04/01 02:44:08;;;;;;;;;2.00;2.00;;;;;;;;5130247;27;45324;-82
2022/04/01 02:46:37;;;;;;;;;4.00;2.75;;;;;;;;5129883;27;46997;-83
2022/04/01 02:49:05;;;;;;;;;3.00;3.00;;;;;;;;5132365;27;46292;-81
2022/04/01 02:51:32;;;;;;;;;1.00;1.00;;;;;;;;5129443;27;45308;-82
2022/04/01 02:53:57;;;;;;;;;2.75;2.75;;;;;;;;5128573;27;45295;-80
2022/04/01 02:56:22;;;;;;;;;2.50;2.00;;;;;;;;5127850;27;47299;-83
2022/04/01 02:58:48;;;;;;;;;1.00;1.00;;;;;;;;5131043;27;45327;-78
2022/04/01 03:01:14;;;;;;;;;3.00;2.00;;;;;;;;5138227;27;45379;-81
2022/04/01 03:03:40;;;;;;;;;2.00;2.00;;;;;;;;5136759;27;45503;-82
2022/04/01 03:06:06;;;;;;;;;3.50;2.75;;;;;;;;5133948;27;45200;-80
2022/04/01 03:08:31;;;;;;;;;2.00;2.00;;;;;;;;5138238;27;46275;-83
2022/04/01 03:10:58;;;;;;;;;2.00;1.50;;;;;;;;5140923;27;44581;-84
2022/04/01 03:13:23;;;;;;;;;3.25;3.00;;;;;;;;5136233;27;45256;-80
2022/04/01 03:15:48;;;;;;;;;3.50;3.50;;;;;;;;5125121;27;45370;-82
2022/04/01 03:18:14;;;;;;;;;3.50;2.25;;;;;;;;5114728;27;48371;-83
2022/04/01 03:20:40;;;;;;;;;2.00;1.00;;;;;;;;5117692;27;44674;-80
2022/04/01 03:23:06;;;;;;;;;3.25;3.25;;;;;;;;5118724;27;45241;-80
2022/04/01 03:25:32;;;;;;;;;2.00;2.00;;;;;;;;5115959;27;46103;-83
2022/04/01 03:27:58;;;;;;;;;1.25;1.25;;;;;;;;5115810;27;47559;-84
2022/04/01 03:30:23;;;;;;;;;1.25;1.25;;;;;;;;5119450;27;45413;-84
2022/04/01 03:32:48;;;;;;;;;1.00;1.00;;;;;;;;5113288;27;45657;-83
2022/04/01 03:35:15;;;;;;;;;2.50;2.00;;;;;;;;5114438;27;45293;-81
2022/04/01 03:37:41;;;;;;;;;1.00;1.00;;;;;;;;5116968;27;47518;-80
2022/04/01 03:40:06;;;;;;;;;2.25;2.25;;;;;;;;5116185;27;45234;-80
2022/04/01 03:42:32;;;;;;;;;3.75;2.00;;;;;;;;5114151;27;45271;-81
2022/04/01 03:45:06;;;;;;;;;10.00;7.00;;;;;;;;5116674;27;45140;-79
2022/04/01 03:47:38;;;;;;;;;7.75;7.75;;;;;;;;5114575;27;46298;-80
2022/04/01 03:50:04;;;;;;;;;4.00;2.75;;;;;;;;5110835;27;46001;-81
2022/04/01 03:52:31;;;;;;;;;3.50;3.50;;;;;;;;5114500;27;44722;-81
2022/04/01 03:55:01;;;;;;;;;2.00;2.00;;;;;;;;5114408;27;45295;-81
2022/04/01 03:57:32;;;;;;;;;3.00;3.00;;;;;;;;5112024;27;45558;-79
2022/04/01 03:59:58;;;;;;;;;2.75;2.75;;;;;;;;5112823;27;45248;-80
2022/04/01 04:02:24;;;;;;;;;4.00;3.00;;;;;;;;5112459;27;45341;-77
2022/04/01 04:04:51;;;;;;;;;3.00;2.00;;;;;;;;5110205;27;45439;-77
2022/04/01 04:07:17;;;;;;;;;2.00;2.00;;;;;;;;5108582;27;46231;-79
2022/04/01 04:09:43;;;;;;;;;2.00;2.00;;;;;;;;5102860;27;45286;-77
2022/04/01 04:12:15;;;;;;;;;2.50;2.50;;;;;;;;5106673;27;45328;-78
2022/04/01 04:14:41;;;;;;;;;2.50;2.50;;;;;;;;5114370;27;45368;-77
2022/04/01 04:17:10;;;;;;;;;5.25;3.50;;;;;;;;5132394;27;46304;-78
2022/04/01 04:19:39;;;;;;;;;2.75;2.75;;;;;;;;5133773;27;45346;-79
2022/04/01 04:22:04;;;;;;;;;2.75;2.75;;;;;;;;5139281;27;45235;-79
2022/04/01 04:24:31;;;;;;;;;2.00;2.00;;;;;;;;5139416;27;46255;-79
2022/04/01 04:27:04;;;;;;;;;2.00;2.00;;;;;;;;5139327;27;45576;-78
2022/04/01 04:29:32;;;;;;;;;2.00;2.00;;;;;;;;5139184;27;45683;-79
2022/04/01 04:31:57;;;;;;;;;3.00;3.00;;;;;;;;5139872;27;45280;-79
2022/04/01 04:34:25;;;;;;;;;2.00;2.00;;;;;;;;5137306;27;45269;-79
2022/04/01 04:36:51;;;;;;;;;2.50;2.50;;;;;;;;5116928;27;47532;-79
2022/04/01 04:39:28;;;;;;;;;2.00;2.00;;;;;;;;5093300;27;45136;-79
2022/04/01 04:41:54;;;;;;;;;3.00;2.00;;;;;;;;5092063;27;45234;-77
2022/04/01 04:44:24;;;;;;;;;2.00;2.00;;;;;;;;5091815;27;45351;-78
2022/04/01 04:46:49;;;;;;;;;2.50;2.50;;;;;;;;5091510;27;46080;-76
2022/04/01 04:49:17;;;;;;;;;3.50;2.25;;;;;;;;5085881;28;45291;-78
2022/04/01 04:51:43;;;;;;;;;2.00;2.00;;;;;;;;5086984;27;45310;-77
2022/04/01 04:54:08;;;;;;;;;3.33;3.33;;;;;;;;5092084;28;45195;-78
2022/04/01 04:56:34;;;;;;;;;3.67;3.67;;;;;;;;5092719;27;45335;-77
2022/04/01 04:59:01;;;;;;;;;1.50;1.50;;;;;;;;5093871;27;45444;-79
2022/04/01 05:01:35;;;;;;;;;3.00;3.00;;;;;;;;5087720;28;45349;-79
2022/04/01 05:04:06;;;;;;;;;3.75;2.00;;;;;;;;5084745;28;46987;-81
2022/04/01 05:06:39;;;;;;;;;5.25;5.25;;;;;;;;5087870;27;45329;-79
2022/04/01 05:09:17;;;;;;;;;4.25;4.25;;;;;;;;5095679;27;45646;-80
2022/04/01 05:11:43;;;;;;;;;7.50;7.00;;;;;;;;5105881;27;45328;-82
2022/04/01 05:14:20;;;;;;;;;7.75;7.75;;;;;;;;5095542;27;47347;-84
2022/04/01 05:16:57;;;;;;;;;7.75;7.75;;;;;;;;5081493;27;45560;-81
2022/04/01 05:19:27;;;;;;;;;8.25;8.25;;;;;;;;5082766;27;45997;-82
2022/04/01 05:22:01;;;;;;;;;12.50;10.00;;;;;;;;5089744;27;45417;-83
2022/04/01 05:24:31;;;;;;;;;9.00;9.00;;;;;;;;5087527;27;45273;-86
2022/04/01 05:26:58;;;;;;;;;12.25;9.75;;;;;;;;5099152;27;48299;-82
2022/04/01 05:29:31;;;;;;;;;9.50;9.50;;;;;;;;5099370;27;45368;-85
2022/04/01 05:32:05;;;;;;;;;12.00;10.00;;;;;;;;5100495;27;45353;-81
2022/04/01 05:34:47;;;;;;;;;11.75;9.25;;;;;;;;5098813;27;46143;-83
2022/04/01 05:37:13;;;;;;;;;13.25;12.50;;;;;;;;5100652;27;45487;-80
2022/04/01 05:39:39;;;;;;;;;9.50;8.75;;;;;;;;5099241;27;45430;-82
2022/04/01 05:42:08;;;;;;;;;7.25;7.25;;;;;;;;5099839;27;45571;-80
2022/04/01 05:44:34;;;;;;;;;6.50;6.50;;;;;;;;5101916;27;45362;-80
2022/04/01 05:47:00;;;;;;;;;7.00;7.00;;;;;;;;5100882;27;45338;-80
2022/04/01 05:49:26;;;;;;;;;7.75;7.75;;;;;;;;5101384;27;45333;-80
2022/04/01 05:51:52;;;;;;;;;7.25;5.00;;;;;;;;5100238;27;45809;-79
2022/04/01 05:54:19;;;;;;;;;6.25;6.00;;;;;;;;5100196;27;45482;-79
2022/04/01 05:56:45;;;;;;;;;9.00;8.00;;;;;;;;5098576;27;47945;-77
2022/04/01 05:59:11;;;;;;;;;9.75;7.00;;;;;;;;5098552;27;45655;-77
2022/04/01 06:01:36;;;;;;;;;9.25;7.50;;;;;;;;5100581;27;45514;-79
2022/04/01 06:04:01;;;;;;;;;6.00;6.00;;;;;;;;5098452;27;46270;-77
2022/04/01 06:06:37;;;;;;;;;8.00;7.00;;;;;;;;5099910;27;45350;-79
2022/04/01 06:09:21;;;;;;;;;8.25;8.25;;;;;;;;5082190;27;45477;-81
2022/04/01 06:11:56;;;;;;;;;9.00;9.00;;;;;;;;5083979;27;45514;-79
2022/04/01 06:14:40;;;;;;;;;11.75;10.25;;;;;;;;5084542;27;45359;-79
2022/04/01 06:17:08;;;;;;;;;12.75;12.75;;;;;;;;5078693;27;46131;-77
2022/04/01 06:19:45;;;;;;;;;15.75;14.75;;;;;;;;5077343;27;45365;-77
2022/04/01 06:22:30;;;;;;;;;14.25;14.25;;;;;;;;5079591;27;45443;-77
2022/04/01 06:24:58;;;;;;;;;11.75;11.75;;;;;;;;5077820;28;46503;-79
2022/04/01 06:27:34;;;;;;;;;14.50;14.50;;;;;;;;5079034;27;45309;-76
2022/04/01 06:30:09;;;;;;;;;11.50;9.50;;;;;;;;5078926;27;45238;-77
2022/04/01 06:32:38;;;;;;;;;14.25;13.00;;;;;;;;5079307;27;45228;-77
2022/04/01 06:35:24;;;;;;;;;11.75;9.50;;;;;;;;5082697;27;45346;-75
2022/04/01 06:38:01;;;;;;;;;12.00;11.75;;;;;;;;5081106;28;47094;-75
2022/04/01 06:40:39;;;;;;;;;17.25;17.25;;;;;;;;5082212;27;45342;-75
2022/04/01 06:43:04;;;;;;;;;16.25;13.50;;;;;;;;5082875;27;45472;-75
2022/04/01 06:45:30;;;;;;;;;15.00;13.25;;;;;;;;5080965;28;45900;-76
2022/04/01 06:47:55;;;;;;;;;18.75;18.75;;;;;;;;5082591;27;45414;-76
2022/04/01 06:50:21;;;;;;;;;12.00;12.00;;;;;;;;5081003;28;45365;-76
2022/04/01 06:52:46;;;;;;;;;17.25;17.00;;;;;;;;5082351;28;45276;-77
2022/04/01 06:55:12;;;;;;;;;22.75;18.00;;;;;;;;5080890;28;46322;-78
2022/04/01 06:57:37;;;;;;;;;17.25;14.75;;;;;;;;5082301;28;45404;-77
2022/04/01 07:00:04;;;;;;;;;19.75;16.50;;;;;;;;5082623;27;45393;-78
2022/04/01 07:02:29;;;;;;;;;16.75;16.75;;;;;;;;5081301;28;45416;-77
2022/04/01 07:04:54;;;;;;;;;23.25;21.25;;;;;;;;5082133;27;45472;-76
2022/04/01 07:07:20;;;;;;;;;12.00;11.50;;;;;;;;5081098;28;47300;-76
2022/04/01 07:09:45;;;;;;;;;13.00;13.00;;;;;;;;5080998;28;45920;-76
2022/04/01 07:12:11;;;;;;;;;12.75;11.00;;;;;;;;5082594;27;45293;-76
2022/04/01 07:14:36;;;;;;;;;16.75;15.50;;;;;;;;5082980;27;45472;-76
2022/04/01 07:17:01;;;;;;;;;14.25;12.75;;;;;;;;5121787;27;47444;-75
2022/04/01 07:19:27;;;;;;;;;14.00;12.50;;;;;;;;5123129;27;45234;-77
2022/04/01 07:21:53;;;;;;;;;16.25;14.25;;;;;;;;5123320;27;45305;-74
2022/04/01 07:24:18;;;;;;;;;18.75;18.75;;;;;;;;5122885;27;45325;-74
2022/04/01 07:26:44;;;;;;;;;18.25;17.50;;;;;;;;5121381;27;47035;-74
2022/04/01 07:29:10;;;;;;;;;12.25;11.50;;;;;;;;5123086;27;45316;-74
2022/04/01 07:34:24;;;;;;;;;17.00;13.00;;;;;;;;5122712;27;45371;-74
2022/04/01 07:36:50;;;;;;;;;16.50;13.75;;;;;;;;5122770;27;46302;-75
2022/04/01 07:39:15;;;;;;;;;15.50;15.25;;;;;;;;5122924;27;45380;-74
2022/04/01 07:41:41;;;;;;;;;16.00;13.50;;;;;;;;5122928;27;45315;-75
2022/04/01 07:44:06;;;;;;;;;9.25;8.00;;;;;;;;5120704;27;47078;-74
2022/04/01 07:46:32;;;;;;;;;13.25;12.75;;;;;;;;5122094;27;45891;-74
2022/04/01 07:48:57;;;;;;;;;15.50;15.50;;;;;;;;5121345;27;45980;-73
2022/04/01 07:51:22;;;;;;;;;17.50;17.00;;;;;;;;5122762;27;45404;-73
2022/04/01 07:53:48;;;;;;;;;16.50;13.00;;;;;;;;5113587;27;45410;-74
2022/04/01 07:56:13;;;;;;;;;20.25;20.25;;;;;;;;5081044;27;45503;-75
2022/04/01 07:58:38;;;;;;;;;20.25;18.75;;;;;;;;5081582;28;45274;-74
2022/04/01 08:01:03;;;;;;;;;22.50;21.25;;;;;;;;5081668;27;45269;-72
2022/04/01 08:03:29;;;;;;;;;24.25;22.00;;;;;;;;5081202;28;45345;-73
2022/04/01 08:05:54;;;;;;;;;17.75;17.75;;;;;;;;5077738;28;48579;-73
2022/04/01 08:08:20;;;;;;;;;25.25;23.00;;;;;;;;5079443;28;45469;-73
2022/04/01 08:10:45;;;;;;;;;24.00;22.75;;;;;;;;5077466;28;45409;-73
2022/04/01 08:13:11;;;;;;;;;20.25;19.25;;;;;;;;5079031;27;45385;-73
2022/04/01 08:15:36;;;;;;;;;18.00;18.00;;;;;;;;5097054;27;45441;-73
2022/04/01 08:18:02;;;;;;;;;25.50;23.50;;;;;;;;5118673;27;45649;-73
2022/04/01 08:20:27;;;;;;;;;21.25;19.25;;;;;;;;5120147;27;45529;-74
2022/04/01 08:22:52;;;;;;;;;22.00;20.75;;;;;;;;5120487;27;45363;-74
2022/04/01 08:25:17;;;;;;;;;23.00;21.00;;;;;;;;5120390;27;47454;-74
2022/04/01 08:27:43;;;;;;;;;21.50;21.00;;;;;;;;5120786;27;45993;-75
2022/04/01 08:30:08;;;;;;;;;24.75;23.25;;;;;;;;5122040;27;45358;-74
2022/04/01 08:32:35;;;;;;;;;21.00;19.25;;;;;;;;5122060;27;45584;-75
2022/04/01 08:35:01;;;;;;;;;18.00;18.00;;;;;;;;5121948;27;45290;-75
2022/04/01 08:37:26;;;;;;;;;26.50;22.25;;;;;;;;5121773;27;45329;-75
2022/04/01 08:39:53;;;;;;;;;26.50;23.75;;;;;;;;5122393;27;45443;-76
2022/04/01 08:42:18;;;;;;;;;18.50;18.25;;;;;;;;5093968;27;46039;-77
2022/04/01 08:44:44;;;;;;;;;23.75;20.00;;;;;;;;5101269;27;45329;-77
2022/04/01 08:47:10;;;;;;;;;25.50;24.75;;;;;;;;5083441;27;45272;-79
2022/04/01 08:49:35;;;;;;;;;23.50;23.25;;;;;;;;5081242;27;45133;-78
2022/04/01 08:52:00;;;;;;;;;18.50;18.50;;;;;;;;5081147;27;45578;-78
2022/04/01 08:54:25;;;;;;;;;29.00;27.75;;;;;;;;5081257;27;45384;-79
2022/04/01 08:56:51;;;;;;;;;20.25;19.00;;;;;;;;5080174;27;45420;-76
2022/04/01 08:59:16;;;;;;;;;25.75;23.00;;;;;;;;5097272;27;45403;-76
2022/04/01 09:01:43;;;;;;;;;26.25;23.50;;;;;;;;5101872;27;45328;-80
2022/04/01 09:04:21;;;;;;;;;22.50;22.25;;;;;;;;5098542;27;45321;-78
2022/04/01 09:06:47;;;;;;;;;22.75;20.50;;;;;;;;5088353;27;46545;-79
2022/04/01 09:09:24;;;;;;;;;24.00;23.50;;;;;;;;5080376;27;45218;-77
2022/04/01 09:12:08;;;;;;;;;26.25;25.25;;;;;;;;5078928;28;46172;-77
2022/04/01 09:14:34;;;;;;;;;26.50;26.50;;;;;;;;5080211;27;46094;-76
2022/04/01 09:17:00;;;;;;;;;29.00;24.50;;;;;;;;5121415;27;45374;-76
2022/04/01 09:19:31;;;;;;;;;28.50;24.00;;;;;;;;5121527;27;45355;-78
2022/04/01 09:21:56;;;;;;;;;19.75;16.50;;;;;;;;5119830;27;46336;-77
2022/04/01 09:24:21;;;;;;;;;27.25;24.50;;;;;;;;5111900;27;45618;-78
2022/04/01 09:26:53;;;;;;;;;26.50;24.25;;;;;;;;5099309;27;45357;-78
2022/04/01 09:29:19;;;;;;;;;24.25;22.50;;;;;;;;5099304;27;45389;-78
2022/04/01 09:31:49;;;;;;;;;21.50;21.50;;;;;;;;5099995;27;45290;-79
2022/04/01 09:34:14;;;;;;;;;24.00;20.25;;;;;;;;5098834;27;47202;-79
2022/04/01 09:36:42;;;;;;;;;25.25;23.50;;;;;;;;5101274;27;45282;-78
2022/04/01 09:39:09;;;;;;;;;24.00;23.00;;;;;;;;5100899;27;45365;-78
2022/04/01 09:41:39;;;;;;;;;25.50;24.75;;;;;;;;5100615;27;45531;-80
2022/04/01 09:44:25;;;;;;;;;26.50;23.50;;;;;;;;5101520;27;45279;-80
2022/04/01 09:46:52;;;;;;;;;25.25;23.25;;;;;;;;5100179;27;45359;-78
2022/04/01 09:49:30;;;;;;;;;24.75;24.75;;;;;;;;5100201;27;45337;-77
2022/04/01 09:51:56;;;;;;;;;29.00;24.50;;;;;;;;5099019;27;47232;-77
2022/04/01 09:54:23;;;;;;;;;27.25;21.00;;;;;;;;5100602;27;45353;-76
2022/04/01 09:56:54;;;;;;;;;22.25;20.00;;;;;;;;5100864;27;46115;-76
2022/04/01 09:59:19;;;;;;;;;18.50;16.50;;;;;;;;5102345;27;45352;-78
2022/04/01 10:01:45;;;;;;;;;25.00;19.50;;;;;;;;5099249;27;46947;-77
2022/04/01 10:04:12;;;;;;;;;20.75;18.75;;;;;;;;5100288;27;45371;-78
2022/04/01 10:06:39;;;;;;;;;22.75;18.00;;;;;;;;5100129;27;45514;-76
2022/04/01 10:09:07;;;;;;;;;14.25;14.25;;;;;;;;5100113;27;45340;-77
2022/04/01 10:11:35;;;;;;;;;17.50;16.00;;;;;;;;5100183;27;46039;-76
2022/04/01 10:14:03;;;;;;;;;14.25;14.25;;;;;;;;5101202;27;45497;-77
2022/04/01 10:16:30;;;;;;;;;17.25;14.50;;;;;;;;5116656;27;45300;-77
2022/04/01 10:18:59;;;;;;;;;19.00;18.00;;;;;;;;5119643;27;45360;-79
2022/04/01 10:21:25;;;;;;;;;19.50;19.50;;;;;;;;5121135;27;45364;-77
2022/04/01 10:23:56;;;;;;;;;16.00;16.00;;;;;;;;5120890;27;46277;-76
2022/04/01 10:26:22;;;;;;;;;17.25;16.50;;;;;;;;5121376;27;45371;-75
2022/04/01 10:28:50;;;;;;;;;15.75;15.75;;;;;;;;5122009;27;45321;-76
2022/04/01 10:31:16;;;;;;;;;15.00;15.00;;;;;;;;5120456;27;45546;-78
2022/04/01 10:33:41;;;;;;;;;15.00;15.00;;;;;;;;5122311;27;45296;-78
2022/04/01 10:36:26;;;;;;;;;15.50;13.50;;;;;;;;5119873;27;45944;-77
2022/04/01 10:39:00;;;;;;;;;13.00;11.00;;;;;;;;5121016;27;45212;-78
2022/04/01 10:41:25;;;;;;;;;14.50;12.50;;;;;;;;5119002;27;46436;-76
2022/04/01 10:43:52;;;;;;;;;12.75;12.00;;;;;;;;5121446;27;45433;-79
2022/04/01 10:46:17;;;;;;;;;13.00;13.00;;;;;;;;5120691;27;45177;-78
2022/04/01 10:52:00;;;;;;;;;12.50;12.50;;;;;;;;5120081;27;45267;-79
2022/04/01 10:54:28;;;;;;;;;18.50;16.25;;;;;;;;5097648;27;45387;-79
2022/04/01 10:57:00;;;;;;;;;20.00;18.00;;;;;;;;5078805;27;45302;-80
2022/04/01 10:59:26;;;;;;;;;16.75;16.75;;;;;;;;5078077;27;45519;-78
2022/04/01 11:01:56;;;;;;;;;12.75;11.75;;;;;;;;5078930;27;45526;-79
2022/04/01 11:04:21;;;;;;;;;18.25;18.25;;;;;;;;5077567;28;46971;-78
2022/04/01 11:07:06;;;;;;;;;19.00;19.00;;;;;;;;5078444;27;45431;-78
2022/04/01 11:09:40;;;;;;;;;4.50;4.50;;;;;;;;5077826;28;45247;-80
2022/04/01 11:12:14;;;;;;;;;13.00;12.50;;;;;;;;5082326;27;45292;-81
2022/04/01 11:15:08;;;;;;;;;16.00;14.75;;;;;;;;5078821;27;46233;-77
2022/04/01 11:17:33;;;;;;;;;21.00;20.00;;;;;;;;5117180;27;45413;-79
2022/04/01 11:20:06;;;;;;;;;17.50;15.00;;;;;;;;5119785;27;45427;-76
2022/04/01 11:22:50;;;;;;;;;16.25;15.75;;;;;;;;5122630;27;45387;-77
2022/04/01 11:25:22;;;;;;;;;16.00;15.75;;;;;;;;5121093;27;48024;-76
2022/04/01 11:27:51;;;;;;;;;18.25;15.25;;;;;;;;5123058;27;45232;-78
2022/04/01 11:30:18;;;;;;;;;17.25;13.00;;;;;;;;5122849;27;45560;-77
2022/04/01 11:32:45;;;;;;;;;17.25;13.00;;;;;;;;5121408;27;45527;-77
2022/04/01 11:35:11;;;;;;;;;15.25;14.50;;;;;;;;5121557;27;47172;-77
2022/04/01 11:37:41;;;;;;;;;20.00;18.25;;;;;;;;5116023;27;45377;-77
2022/04/01 11:40:09;;;;;;;;;16.75;14.50;;;;;;;;5095021;27;45716;-77
2022/04/01 11:42:46;;;;;;;;;17.75;15.00;;;;;;;;5102275;27;45377;-74
2022/04/01 11:45:12;;;;;;;;;16.25;14.50;;;;;;;;5100627;27;46033;-78
2022/04/01 11:47:42;;;;;;;;;13.25;11.25;;;;;;;;5102048;27;45328;-77
2022/04/01 11:50:07;;;;;;;;;18.25;17.75;;;;;;;;5102452;27;45346;-77
2022/04/01 11:52:40;;;;;;;;;18.00;17.50;;;;;;;;5101897;27;45500;-82
2022/04/01 11:55:11;;;;;;;;;14.25;13.75;;;;;;;;5101857;27;47106;-78
2022/04/01 11:57:36;;;;;;;;;15.00;14.75;;;;;;;;5101887;27;45606;-78
2022/04/01 12:00:08;;;;;;;;;18.00;15.00;;;;;;;;5101988;27;45335;-77
2022/04/01 12:02:35;;;;;;;;;14.25;14.00;;;;;;;;5101933;27;45358;-78
2022/04/01 12:05:00;;;;;;;;;20.25;18.25;;;;;;;;5101796;27;46545;-78
2022/04/01 12:10:22;;;;;;;;;18.25;15.75;;;;;;;;5101735;27;45451;-77
2022/04/01 12:13:07;;;;;;;;;15.75;15.00;;;;;;;;5096315;27;45432;-77
2022/04/01 12:15:42;;;;;;;;;18.00;14.50;;;;;;;;5097585;27;45553;-77
2022/04/01 12:18:17;;;;;;;;;19.00;15.50;;;;;;;;5090195;27;45362;-78
2022/04/01 12:20:49;;;;;;;;;21.25;17.25;;;;;;;;5080889;27;45718;-79
2022/04/01 12:23:14;;;;;;;;;19.50;17.25;;;;;;;;5097934;27;45449;-77
2022/04/01 12:25:40;;;;;;;;;19.75;18.75;;;;;;;;5100542;27;46635;-77
2022/04/01 12:28:07;;;;;;;;;24.25;19.75;;;;;;;;5099454;27;45373;-76
2022/04/01 12:30:38;;;;;;;;;16.00;15.25;;;;;;;;5094713;27;45400;-77
2022/04/01 12:33:06;;;;;;;;;20.75;17.50;;;;;;;;5080958;27;45560;-76
2022/04/01 12:35:31;;;;;;;;;19.00;15.00;;;;;;;;5081168;27;47206;-77
2022/04/01 12:38:09;;;;;;;;;14.50;14.50;;;;;;;;5088900;27;45337;-78
2022/04/01 12:40:55;;;;;;;;;20.25;16.50;;;;;;;;5080283;27;45536;-75
2022/04/01 12:43:36;;;;;;;;;18.75;17.00;;;;;;;;5077139;28;46990;-76
2022/04/01 12:46:09;;;;;;;;;15.25;13.75;;;;;;;;5079904;28;45405;-75
2022/04/01 12:48:42;;;;;;;;;17.50;16.00;;;;;;;;5080693;27;45251;-74
2022/04/01 12:51:07;;;;;;;;;18.00;17.50;;;;;;;;5080633;27;45347;-74
2022/04/01 12:53:35;;;;;;;;;14.00;14.00;;;;;;;;5080327;27;45511;-76
2022/04/01 12:56:17;;;;;;;;;13.00;13.00;;;;;;;;5080400;27;46109;-75
2022/04/01 12:58:48;;;;;;;;;18.00;18.00;;;;;;;;5079906;27;45378;-74
2022/04/01 13:01:14;;;;;;;;;19.50;16.25;;;;;;;;5078711;27;45295;-74
2022/04/01 13:03:46;;;;;;;;;16.00;16.00;;;;;;;;5078480;28;46404;-74
2022/04/01 13:06:15;;;;;;;;;15.25;14.00;;;;;;;;5080423;27;45389;-74
2022/04/01 13:08:40;;;;;;;;;18.50;16.25;;;;;;;;5080358;27;45637;-75
2022/04/01 13:11:10;;;;;;;;;18.25;16.00;;;;;;;;5080236;27;45371;-75
2022/04/01 13:13:35;;;;;;;;;16.75;16.75;;;;;;;;5080236;27;45299;-75
2022/04/01 13:16:00;;;;;;;;;14.75;14.00;;;;;;;;5103592;27;46362;-75
2022/04/01 13:18:27;;;;;;;;;19.00;19.00;;;;;;;;5121369;27;45437;-76
2022/04/01 13:20:52;;;;;;;;;18.50;18.25;;;;;;;;5120124;27;45423;-76
2022/04/01 13:23:18;;;;;;;;;19.25;18.00;;;;;;;;5121122;27;45316;-75
2022/04/01 13:25:43;;;;;;;;;20.00;18.25;;;;;;;;5120931;27;45297;-76
2022/04/01 13:28:10;;;;;;;;;22.00;19.75;;;;;;;;5121258;27;45266;-76
2022/04/01 13:30:35;;;;;;;;;18.75;18.25;;;;;;;;5119732;27;45483;-76
2022/04/01 13:33:00;;;;;;;;;24.75;21.50;;;;;;;;5119606;27;48058;-75
2022/04/01 13:35:26;;;;;;;;;18.75;18.75;;;;;;;;5121370;27;45484;-75
2022/04/01 13:37:52;;;;;;;;;18.75;16.75;;;;;;;;5120985;27;45310;-76
2022/04/01 13:40:17;;;;;;;;;16.00;15.75;;;;;;;;5120889;27;45273;-75
2022/04/01 13:42:42;;;;;;;;;16.25;16.25;;;;;;;;5121103;27;45335;-79
2022/04/01 13:45:08;;;;;;;;;19.00;17.50;;;;;;;;5110846;27;46182;-77
2022/04/01 13:47:33;;;;;;;;;19.25;18.25;;;;;;;;5090415;27;45443;-77
2022/04/01 13:49:59;;;;;;;;;19.75;17.50;;;;;;;;5089012;27;45446;-80
2022/04/01 13:52:24;;;;;;;;;23.00;18.75;;;;;;;;5087276;27;45491;-78
2022/04/01 13:54:49;;;;;;;;;17.75;17.75;;;;;;;;5091351;27;46410;-80
2022/04/01 13:57:15;;;;;;;;;22.75;19.50;;;;;;;;5092094;27;45376;-81
2022/04/01 13:59:41;;;;;;;;;19.25;17.25;;;;;;;;5089535;27;45531;-80
2022/04/01 14:02:07;;;;;;;;;18.25;18.00;;;;;;;;5084572;27;45362;-79
2022/04/01 14:04:34;;;;;;;;;20.25;19.25;;;;;;;;5086886;27;45951;-80
2022/04/01 14:07:07;;;;;;;;;24.50;21.50;;;;;;;;5089777;27;45498;-78
2022/04/01 14:09:33;;;;;;;;;19.00;19.00;;;;;;;;5093320;27;45427;-80
2022/04/01 14:11:58;;;;;;;;;12.75;12.75;;;;;;;;5101728;27;45429;-79
2022/04/01 14:14:23;;;;;;;;;19.50;18.50;;;;;;;;5102911;27;48535;-79
2022/04/01 14:16:49;;;;;;;;;19.50;19.50;;;;;;;;5123187;27;45247;-79
2022/04/01 14:19:14;;;;;;;;;19.75;19.00;;;;;;;;5126115;27;45380;-81
2022/04/01 14:21:39;;;;;;;;;13.75;13.25;;;;;;;;5126610;27;45258;-80
2022/04/01 14:24:05;;;;;;;;;19.00;19.00;;;;;;;;5110315;27;45185;-80
2022/04/01 14:26:31;;;;;;;;;21.50;20.50;;;;;;;;5089723;27;45515;-80
2022/04/01 14:30:16;;;;;;;;;19.00;16.50;;;;;;;;5086325;27;45378;-84
2022/04/01 14:31:57;;;;;;;;;22.50;18.75;;;;;;;;5097252;27;45549;-79
2022/04/01 14:34:22;;;;;;;;;21.50;21.25;;;;;;;;5089517;27;45274;-82
2022/04/01 14:36:58;;;;;;;;;20.50;19.00;;;;;;;;5091037;28;45301;-79
2022/04/01 14:39:24;;;;;;;;;24.75;23.25;;;;;;;;5089941;27;45382;-77
2022/04/01 14:41:50;;;;;;;;;25.25;22.00;;;;;;;;5080512;27;45233;-76
2022/04/01 14:44:15;;;;;;;;;24.25;20.75;;;;;;;;5082502;27;46073;-77
2022/04/01 14:46:40;;;;;;;;;18.75;18.00;;;;;;;;5084368;28;45186;-77